sensor_id;sensor_type;location;lat;lon;timestamp;pressure;altitude;pressure_sealevel;temperature;humidity
15272;BME280;7737;51.578;7.268;2022-10-03T00:02:00;101965.41;;;9.33;100.00
15272;BME280;7737;51.578;7.268;2022-10-03T00:04:47;101971.81;;;9.24;100.00
15272;BME280;7737;51.578;7.268;2022-10-03T00:07:31;101979.81;;;9.23;100.00
15272;BME280;7737;51.578;7.268;2022-10-03T00:10:08;101978.06;;;9.22;100.00
15272;BME280;7737;51.578;7.268;2022-10-03T00:12:46;101979.00;;;9.21;100.00
15272;BME280;7737;51.578;7.268;2022-10-03T00:15:20;101981.47;;;9.27;100.00
15272;BME280;7737;51.578;7.268;2022-10-03T00:17:58;101982.03;;;9.41;100.00
15272;BME280;7737;51.578;7.268;2022-10-03T00:20:40;101986.38;;;9.45;100.00
15272;BME280;7737;51.578;7.268;2022-10-03T00:23:17;101979.44;;;9.39;100.00
15272;BME280;7737;51.578;7.268;2022-10-03T00:25:51;101992.56;;;9.44;100.00
15272;BME280;7737;51.578;7.268;2022-10-03T00:28:38;101995.22;;;9.44;100.00
15272;BME280;7737;51.578;7.268;2022-10-03T00:31:11;102002.44;;;9.39;100.00
15272;BME280;7737;51.578;7.268;2022-10-03T00:33:53;101995.59;;;9.29;100.00
15272;BME280;7737;51.578;7.268;2022-10-03T00:36:32;102007.94;;;9.30;100.00
15272;BME280;7737;51.578;7.268;2022-10-03T00:39:23;102007.19;;;9.25;100.00
15272;BME280;7737;51.578;7.268;2022-10-03T00:42:43;102003.69;;;9.23;100.00
15272;BME280;7737;51.578;7.268;2022-10-03T00:45:43;102007.34;;;9.18;100.00
15272;BME280;7737;51.578;7.268;2022-10-03T00:48:47;102009.19;;;9.15;100.00
15272;BME280;7737;51.578;7.268;2022-10-03T00:51:43;102019.00;;;9.11;100.00
15272;BME280;7737;51.578;7.268;2022-10-03T00:54:27;102020.81;;;9.09;100.00
15272;BME280;7737;51.578;7.268;2022-10-03T00:57:22;102019.06;;;9.08;100.00
15272;BME280;7737;51.578;7.268;2022-10-03T01:00:03;102023.41;;;9.11;100.00
15272;BME280;7737;51.578;7.268;2022-10-03T01:02:45;102027.94;;;9.07;100.00
15272;BME280;7737;51.578;7.268;2022-10-03T01:05:22;102024.84;;;8.87;100.00
15272;BME280;7737;51.578;7.268;2022-10-03T01:08:07;102026.19;;;9.06;100.00
15272;BME280;7737;51.578;7.268;2022-10-03T01:10:45;102032.31;;;9.10;100.00
15272;BME280;7737;51.578;7.268;2022-10-03T01:13:28;102028.81;;;9.08;100.00
15272;BME280;7737;51.578;7.268;2022-10-03T01:16:07;102034.13;;;9.06;100.00
15272;BME280;7737;51.578;7.268;2022-10-03T01:18:47;102032.97;;;9.19;100.00
15272;BME280;7737;51.578;7.268;2022-10-03T01:21:24;102037.31;;;9.24;100.00
15272;BME280;7737;51.578;7.268;2022-10-03T01:24:18;102031.28;;;9.15;100.00
15272;BME280;7737;51.578;7.268;2022-10-03T01:26:56;102030.94;;;9.31;100.00
15272;BME280;7737;51.578;7.268;2022-10-03T01:29:35;102030.81;;;9.37;100.00
15272;BME280;7737;51.578;7.268;2022-10-03T01:32:25;102036.09;;;9.37;100.00
15272;BME280;7737;51.578;7.268;2022-10-03T01:35:01;102032.31;;;9.47;100.00
15272;BME280;7737;51.578;7.268;2022-10-03T01:37:37;102041.47;;;9.34;100.00
15272;BME280;7737;51.578;7.268;2022-10-03T01:40:12;102049.56;;;9.28;100.00
15272;BME280;7737;51.578;7.268;2022-10-03T01:42:55;102047.72;;;9.31;100.00
15272;BME280;7737;51.578;7.268;2022-10-03T01:45:30;102047.09;;;9.20;100.00
15272;BME280;7737;51.578;7.268;2022-10-03T01:48:04;102051.72;;;9.12;100.00
15272;BME280;7737;51.578;7.268;2022-10-03T01:50:35;102049.81;;;9.17;100.00
15272;BME280;7737;51.578;7.268;2022-10-03T01:53:07;102046.44;;;9.10;100.00
15272;BME280;7737;51.578;7.268;2022-10-03T01:55:47;102046.47;;;9.09;100.00
15272;BME280;7737;51.578;7.268;2022-10-03T01:58:24;102045.47;;;9.14;100.00
15272;BME280;7737;51.578;7.268;2022-10-03T02:00:58;102053.59;;;9.05;100.00
15272;BME280;7737;51.578;7.268;2022-10-03T02:03:30;102061.38;;;9.14;100.00
15272;BME280;7737;51.578;7.268;2022-10-03T02:06:05;102068.50;;;9.11;100.00
15272;BME280;7737;51.578;7.268;2022-10-03T02:08:46;102068.50;;;9.12;100.00
15272;BME280;7737;51.578;7.268;2022-10-03T02:11:25;102072.09;;;9.08;100.00
15272;BME280;7737;51.578;7.268;2022-10-03T02:13:58;102071.97;;;9.14;100.00
15272;BME280;7737;51.578;7.268;2022-10-03T02:16:37;102069.50;;;9.07;100.00
15272;BME280;7737;51.578;7.268;2022-10-03T02:19:11;102069.47;;;9.08;100.00
15272;BME280;7737;51.578;7.268;2022-10-03T02:21:47;102066.97;;;9.02;100.00
15272;BME280;7737;51.578;7.268;2022-10-03T02:24:30;102071.41;;;9.00;100.00
15272;BME280;7737;51.578;7.268;2022-10-03T02:27:24;102074.19;;;8.94;100.00
15272;BME280;7737;51.578;7.268;2022-10-03T02:30:11;102076.09;;;8.88;100.00
15272;BME280;7737;51.578;7.268;2022-10-03T02:36:31;102085.75;;;8.90;100.00
15272;BME280;7737;51.578;7.268;2022-10-03T02:39:24;102091.06;;;8.92;100.00
15272;BME280;7737;51.578;7.268;2022-10-03T02:42:20;102083.16;;;8.87;100.00
15272;BME280;7737;51.578;7.268;2022-10-03T02:45:17;102093.78;;;8.89;100.00
15272;BME280;7737;51.578;7.268;2022-10-03T02:48:11;102083.22;;;8.84;100.00
15272;BME280;7737;51.578;7.268;2022-10-03T02:51:00;102088.53;;;8.84;100.00
15272;BME280;7737;51.578;7.268;2022-10-03T02:53:59;102088.63;;;8.80;100.00
15272;BME280;7737;51.578;7.268;2022-10-03T03:00:19;102094.88;;;8.77;100.00
15272;BME280;7737;51.578;7.268;2022-10-03T03:03:25;102100.22;;;8.74;100.00
15272;BME280;7737;51.578;7.268;2022-10-03T03:06:30;102099.19;;;8.83;100.00
15272;BME280;7737;51.578;7.268;2022-10-03T03:09:31;102102.81;;;8.79;100.00
15272;BME280;7737;51.578;7.268;2022-10-03T03:12:25;102101.00;;;8.79;100.00
15272;BME280;7737;51.578;7.268;2022-10-03T03:18:03;102098.19;;;8.88;100.00
15272;BME280;7737;51.578;7.268;2022-10-03T03:20:39;102099.03;;;8.90;100.00
15272;BME280;7737;51.578;7.268;2022-10-03T03:23:34;102104.53;;;8.80;100.00
15272;BME280;7737;51.578;7.268;2022-10-03T03:26:18;102105.53;;;8.74;100.00
15272;BME280;7737;51.578;7.268;2022-10-03T03:28:58;102107.47;;;8.66;100.00
15272;BME280;7737;51.578;7.268;2022-10-03T03:31:33;102106.41;;;8.76;100.00
15272;BME280;7737;51.578;7.268;2022-10-03T03:34:08;102105.69;;;8.67;100.00
15272;BME280;7737;51.578;7.268;2022-10-03T03:36:47;102109.22;;;8.67;100.00
15272;BME280;7737;51.578;7.268;2022-10-03T03:39:33;102105.06;;;8.54;100.00
15272;BME280;7737;51.578;7.268;2022-10-03T03:42:26;102100.59;;;8.56;100.00
15272;BME280;7737;51.578;7.268;2022-10-03T03:45:11;102110.31;;;8.57;100.00
15272;BME280;7737;51.578;7.268;2022-10-03T03:48:18;102104.91;;;8.62;100.00
15272;BME280;7737;51.578;7.268;2022-10-03T03:50:56;102113.78;;;8.59;100.00
15272;BME280;7737;51.578;7.268;2022-10-03T03:53:47;102116.50;;;8.56;100.00
15272;BME280;7737;51.578;7.268;2022-10-03T03:56:33;102108.38;;;8.65;100.00
15272;BME280;7737;51.578;7.268;2022-10-03T03:59:15;102106.53;;;8.70;100.00
15272;BME280;7737;51.578;7.268;2022-10-03T04:02:04;102107.50;;;8.65;100.00
15272;BME280;7737;51.578;7.268;2022-10-03T04:04:53;102113.53;;;8.71;100.00
15272;BME280;7737;51.578;7.268;2022-10-03T04:07:32;102111.94;;;8.64;100.00
15272;BME280;7737;51.578;7.268;2022-10-03T04:10:16;102118.09;;;8.65;100.00
15272;BME280;7737;51.578;7.268;2022-10-03T04:12:56;102120.81;;;8.62;100.00
15272;BME280;7737;51.578;7.268;2022-10-03T04:15:43;102121.50;;;8.73;100.00
15272;BME280;7737;51.578;7.268;2022-10-03T04:18:26;102124.09;;;8.74;100.00
15272;BME280;7737;51.578;7.268;2022-10-03T04:21:38;102121.69;;;8.62;100.00
15272;BME280;7737;51.578;7.268;2022-10-03T04:24:35;102124.34;;;8.62;100.00
15272;BME280;7737;51.578;7.268;2022-10-03T04:27:33;102133.28;;;8.56;100.00
15272;BME280;7737;51.578;7.268;2022-10-03T04:30:08;102131.38;;;8.63;100.00
15272;BME280;7737;51.578;7.268;2022-10-03T04:32:57;102127.78;;;8.67;100.00
15272;BME280;7737;51.578;7.268;2022-10-03T04:35:48;102128.63;;;8.69;100.00
15272;BME280;7737;51.578;7.268;2022-10-03T04:38:36;102131.16;;;8.75;100.00
15272;BME280;7737;51.578;7.268;2022-10-03T04:41:08;102137.25;;;8.80;100.00
15272;BME280;7737;51.578;7.268;2022-10-03T04:43:40;102126.47;;;8.88;100.00
15272;BME280;7737;51.578;7.268;2022-10-03T04:46:20;102137.09;;;8.88;100.00
15272;BME280;7737;51.578;7.268;2022-10-03T04:48:55;102128.19;;;8.90;100.00
15272;BME280;7737;51.578;7.268;2022-10-03T04:51:33;102132.41;;;9.00;100.00
15272;BME280;7737;51.578;7.268;2022-10-03T04:54:13;102135.72;;;9.11;100.00
15272;BME280;7737;51.578;7.268;2022-10-03T04:56:48;102131.28;;;9.12;100.00
15272;BME280;7737;51.578;7.268;2022-10-03T04:59:35;102129.47;;;9.15;100.00
15272;BME280;7737;51.578;7.268;2022-10-03T05:02:10;102127.66;;;9.16;100.00
15272;BME280;7737;51.578;7.268;2022-10-03T05:04:57;102133.78;;;9.19;100.00
15272;BME280;7737;51.578;7.268;2022-10-03T05:07:33;102131.91;;;9.25;100.00
15272;BME280;7737;51.578;7.268;2022-10-03T05:10:22;102130.00;;;9.30;100.00
15272;BME280;7737;51.578;7.268;2022-10-03T05:12:57;102130.91;;;9.30;100.00
15272;BME280;7737;51.578;7.268;2022-10-03T05:15:29;102133.66;;;9.26;100.00
15272;BME280;7737;51.578;7.268;2022-10-03T05:18:02;102140.63;;;9.30;100.00
15272;BME280;7737;51.578;7.268;2022-10-03T05:20:39;102134.47;;;9.29;100.00
15272;BME280;7737;51.578;7.268;2022-10-03T05:23:18;102139.72;;;9.31;100.00
15272;BME280;7737;51.578;7.268;2022-10-03T05:25:55;102132.72;;;9.27;100.00
15272;BME280;7737;51.578;7.268;2022-10-03T05:28:33;102140.44;;;9.39;100.00
15272;BME280;7737;51.578;7.268;2022-10-03T05:31:15;102136.97;;;9.37;100.00
15272;BME280;7737;51.578;7.268;2022-10-03T05:33:48;102142.38;;;9.31;100.00
15272;BME280;7737;51.578;7.268;2022-10-03T05:36:27;102135.38;;;9.28;100.00
15272;BME280;7737;51.578;7.268;2022-10-03T05:39:14;102138.09;;;9.25;100.00
15272;BME280;7737;51.578;7.268;2022-10-03T05:41:51;102144.34;;;9.23;100.00
15272;BME280;7737;51.578;7.268;2022-10-03T05:44:24;102136.56;;;9.13;100.00
15272;BME280;7737;51.578;7.268;2022-10-03T05:46:58;102148.81;;;9.19;100.00
15272;BME280;7737;51.578;7.268;2022-10-03T05:49:48;102157.66;;;9.21;100.00
15272;BME280;7737;51.578;7.268;2022-10-03T05:52:49;102163.16;;;9.10;100.00
15272;BME280;7737;51.578;7.268;2022-10-03T05:55:31;102165.72;;;9.13;100.00
15272;BME280;7737;51.578;7.268;2022-10-03T05:58:24;102170.97;;;9.18;100.00
15272;BME280;7737;51.578;7.268;2022-10-03T06:01:10;102172.06;;;9.08;100.00
15272;BME280;7737;51.578;7.268;2022-10-03T06:04:04;102183.53;;;9.08;100.00
15272;BME280;7737;51.578;7.268;2022-10-03T06:06:48;102178.94;;;9.16;100.00
15272;BME280;7737;51.578;7.268;2022-10-03T06:09:42;102179.09;;;9.09;100.00
15272;BME280;7737;51.578;7.268;2022-10-03T06:12:19;102187.84;;;9.14;100.00
15272;BME280;7737;51.578;7.268;2022-10-03T06:15:15;102197.56;;;9.13;100.00
15272;BME280;7737;51.578;7.268;2022-10-03T06:18:00;102197.50;;;9.16;100.00
15272;BME280;7737;51.578;7.268;2022-10-03T06:20:52;102189.41;;;9.24;100.00
15272;BME280;7737;51.578;7.268;2022-10-03T06:24:07;102200.94;;;9.23;100.00
15272;BME280;7737;51.578;7.268;2022-10-03T06:29:49;102191.97;;;9.29;100.00
15272;BME280;7737;51.578;7.268;2022-10-03T06:35:59;102199.56;;;9.45;100.00
15272;BME280;7737;51.578;7.268;2022-10-03T06:39:20;102198.63;;;9.48;100.00
15272;BME280;7737;51.578;7.268;2022-10-03T06:42:31;102194.06;;;9.54;100.00
15272;BME280;7737;51.578;7.268;2022-10-03T06:45:46;102199.19;;;9.63;100.00
15272;BME280;7737;51.578;7.268;2022-10-03T06:48:39;102200.03;;;9.65;100.00
15272;BME280;7737;51.578;7.268;2022-10-03T06:57:41;102199.50;;;9.88;100.00
15272;BME280;7737;51.578;7.268;2022-10-03T07:00:17;102199.41;;;9.93;100.00
15272;BME280;7737;51.578;7.268;2022-10-03T07:03:19;102207.50;;;9.87;100.00
15272;BME280;7737;51.578;7.268;2022-10-03T07:06:17;102207.91;;;10.07;100.00
15272;BME280;7737;51.578;7.268;2022-10-03T07:09:22;102219.19;;;10.18;100.00
15272;BME280;7737;51.578;7.268;2022-10-03T07:12:31;102222.97;;;10.08;100.00
15272;BME280;7737;51.578;7.268;2022-10-03T07:21:34;102230.53;;;10.61;100.00
15272;BME280;7737;51.578;7.268;2022-10-03T07:24:18;102228.28;;;10.80;100.00
15272;BME280;7737;51.578;7.268;2022-10-03T07:27:18;102228.34;;;10.77;100.00
15272;BME280;7737;51.578;7.268;2022-10-03T07:30:03;102241.25;;;10.92;100.00
15272;BME280;7737;51.578;7.268;2022-10-03T07:33:23;102244.25;;;10.78;100.00
15272;BME280;7737;51.578;7.268;2022-10-03T07:36:20;102243.91;;;10.92;100.00
15272;BME280;7737;51.578;7.268;2022-10-03T07:39:49;102241.72;;;10.74;100.00
15272;BME280;7737;51.578;7.268;2022-10-03T07:45:40;102244.03;;;10.87;100.00
15272;BME280;7737;51.578;7.268;2022-10-03T07:51:17;102243.09;;;11.22;100.00
15272;BME280;7737;51.578;7.268;2022-10-03T08:06:16;102249.34;;;11.83;100.00
15272;BME280;7737;51.578;7.268;2022-10-03T08:09:17;102254.56;;;11.86;100.00
15272;BME280;7737;51.578;7.268;2022-10-03T08:14:49;102265.47;;;12.06;100.00
15272;BME280;7737;51.578;7.268;2022-10-03T08:20:49;102255.44;;;12.42;100.00
15272;BME280;7737;51.578;7.268;2022-10-03T08:23:55;102261.66;;;12.42;100.00
15272;BME280;7737;51.578;7.268;2022-10-03T08:26:35;102255.06;;;12.52;100.00
15272;BME280;7737;51.578;7.268;2022-10-03T08:29:20;102260.47;;;12.51;100.00
15272;BME280;7737;51.578;7.268;2022-10-03T08:32:22;102262.44;;;12.46;100.00
15272;BME280;7737;51.578;7.268;2022-10-03T08:38:24;102256.28;;;12.95;100.00
15272;BME280;7737;51.578;7.268;2022-10-03T08:41:42;102252.81;;;12.93;100.00
15272;BME280;7737;51.578;7.268;2022-10-03T08:45:07;102241.53;;;13.11;100.00
15272;BME280;7737;51.578;7.268;2022-10-03T08:48:05;102239.91;;;13.07;100.00
15272;BME280;7737;51.578;7.268;2022-10-03T08:54:08;102249.91;;;13.50;100.00
15272;BME280;7737;51.578;7.268;2022-10-03T09:00:04;102242.50;;;13.33;100.00
15272;BME280;7737;51.578;7.268;2022-10-03T09:03:06;102244.56;;;13.50;100.00
15272;BME280;7737;51.578;7.268;2022-10-03T09:06:30;102236.47;;;13.51;100.00
15272;BME280;7737;51.578;7.268;2022-10-03T09:09:39;102234.38;;;13.59;100.00
15272;BME280;7737;51.578;7.268;2022-10-03T09:12:39;102234.97;;;13.67;100.00
15272;BME280;7737;51.578;7.268;2022-10-03T09:15:34;102233.56;;;13.80;100.00
15272;BME280;7737;51.578;7.268;2022-10-03T09:18:34;102240.59;;;13.83;100.00
15272;BME280;7737;51.578;7.268;2022-10-03T09:21:34;102242.81;;;13.95;100.00
15272;BME280;7737;51.578;7.268;2022-10-03T09:24:18;102239.66;;;14.29;100.00
15272;BME280;7737;51.578;7.268;2022-10-03T09:27:36;102230.50;;;14.13;100.00
15272;BME280;7737;51.578;7.268;2022-10-03T09:30:19;102224.03;;;14.18;100.00
15272;BME280;7737;51.578;7.268;2022-10-03T09:39:02;102221.28;;;14.20;100.00
15272;BME280;7737;51.578;7.268;2022-10-03T09:44:47;102213.38;;;14.40;100.00
15272;BME280;7737;51.578;7.268;2022-10-03T09:50:53;102206.28;;;14.39;100.00
15272;BME280;7737;51.578;7.268;2022-10-03T09:57:07;102208.94;;;14.39;100.00
15272;BME280;7737;51.578;7.268;2022-10-03T10:00:02;102200.66;;;14.45;100.00
15272;BME280;7737;51.578;7.268;2022-10-03T10:09:23;102195.63;;;14.79;100.00
15272;BME280;7737;51.578;7.268;2022-10-03T10:21:36;102188.13;;;16.02;100.00
15272;BME280;7737;51.578;7.268;2022-10-03T10:27:45;102176.56;;;15.83;100.00
15272;BME280;7737;51.578;7.268;2022-10-03T10:30:21;102164.31;;;16.13;100.00
15272;BME280;7737;51.578;7.268;2022-10-03T10:33:31;102163.03;;;16.03;100.00
15272;BME280;7737;51.578;7.268;2022-10-03T10:36:44;102150.06;;;16.30;100.00
15272;BME280;7737;51.578;7.268;2022-10-03T10:39:39;102153.34;;;16.18;100.00
15272;BME280;7737;51.578;7.268;2022-10-03T10:42:47;102147.22;;;16.33;100.00
15272;BME280;7737;51.578;7.268;2022-10-03T10:45:37;102146.91;;;16.22;100.00
15272;BME280;7737;51.578;7.268;2022-10-03T10:58:11;102156.59;;;15.89;100.00
15272;BME280;7737;51.578;7.268;2022-10-03T11:01:18;102153.28;;;16.19;100.00
15272;BME280;7737;51.578;7.268;2022-10-03T11:04:17;102138.13;;;16.54;100.00
15272;BME280;7737;51.578;7.268;2022-10-03T11:07:23;102133.03;;;16.82;100.00
15272;BME280;7737;51.578;7.268;2022-10-03T11:10:29;102131.16;;;17.00;100.00
15272;BME280;7737;51.578;7.268;2022-10-03T11:22:54;102115.59;;;17.07;100.00
15272;BME280;7737;51.578;7.268;2022-10-03T11:25:56;102103.94;;;16.90;100.00
15272;BME280;7737;51.578;7.268;2022-10-03T11:28:59;102104.69;;;17.10;100.00
15272;BME280;7737;51.578;7.268;2022-10-03T11:32:07;102103.94;;;16.90;100.00
15272;BME280;7737;51.578;7.268;2022-10-03T11:37:48;102098.59;;;17.06;100.00
15272;BME280;7737;51.578;7.268;2022-10-03T11:40:35;102088.53;;;16.94;100.00
15272;BME280;7737;51.578;7.268;2022-10-03T11:43:37;102081.00;;;16.68;100.00
15272;BME280;7737;51.578;7.268;2022-10-03T11:46:20;102078.31;;;17.16;100.00
15272;BME280;7737;51.578;7.268;2022-10-03T11:48:53;102093.78;;;17.13;100.00
15272;BME280;7737;51.578;7.268;2022-10-03T11:51:35;102083.88;;;17.13;100.00
15272;BME280;7737;51.578;7.268;2022-10-03T11:54:14;102087.03;;;16.88;100.00
15272;BME280;7737;51.578;7.268;2022-10-03T11:56:45;102090.81;;;17.17;100.00
15272;BME280;7737;51.578;7.268;2022-10-03T11:59:34;102102.31;;;17.52;100.00
15272;BME280;7737;51.578;7.268;2022-10-03T12:02:12;102092.75;;;17.46;100.00
15272;BME280;7737;51.578;7.268;2022-10-03T12:04:56;102075.34;;;17.05;100.00
15272;BME280;7737;51.578;7.268;2022-10-03T12:07:39;102083.47;;;17.21;100.00
15272;BME280;7737;51.578;7.268;2022-10-03T12:10:36;102083.16;;;16.94;100.00
15272;BME280;7737;51.578;7.268;2022-10-03T12:13:10;102088.41;;;16.80;100.00
15272;BME280;7737;51.578;7.268;2022-10-03T12:15:41;102085.97;;;16.75;100.00
15272;BME280;7737;51.578;7.268;2022-10-03T12:18:15;102070.88;;;17.21;100.00
15272;BME280;7737;51.578;7.268;2022-10-03T12:21:04;102068.63;;;17.14;100.00
15272;BME280;7737;51.578;7.268;2022-10-03T12:23:49;102065.00;;;17.30;100.00
15272;BME280;7737;51.578;7.268;2022-10-03T12:26:26;102065.78;;;17.32;100.00
15272;BME280;7737;51.578;7.268;2022-10-03T12:28:56;102079.91;;;17.20;100.00
15272;BME280;7737;51.578;7.268;2022-10-03T12:31:27;102065.75;;;17.01;100.00
15272;BME280;7737;51.578;7.268;2022-10-03T12:34:02;102073.75;;;17.18;100.00
15272;BME280;7737;51.578;7.268;2022-10-03T12:36:47;102077.97;;;17.07;100.00
15272;BME280;7737;51.578;7.268;2022-10-03T12:39:25;102076.91;;;16.93;100.00
15272;BME280;7737;51.578;7.268;2022-10-03T12:42:08;102074.88;;;17.14;100.00
15272;BME280;7737;51.578;7.268;2022-10-03T12:44:48;102061.88;;;17.22;100.00
15272;BME280;7737;51.578;7.268;2022-10-03T12:47:28;102073.13;;;17.13;100.00
15272;BME280;7737;51.578;7.268;2022-10-03T12:50:02;102073.50;;;17.23;100.00
15272;BME280;7737;51.578;7.268;2022-10-03T12:52:36;102068.41;;;17.34;100.00
15272;BME280;7737;51.578;7.268;2022-10-03T12:55:21;102070.72;;;17.40;100.00
15272;BME280;7737;51.578;7.268;2022-10-03T12:57:53;102069.50;;;17.45;100.00
15272;BME280;7737;51.578;7.268;2022-10-03T13:00:29;102054.06;;;17.02;100.00
15272;BME280;7737;51.578;7.268;2022-10-03T13:03:15;102066.03;;;17.12;100.00
15272;BME280;7737;51.578;7.268;2022-10-03T13:06:13;102071.28;;;16.98;100.00
15272;BME280;7737;51.578;7.268;2022-10-03T13:08:54;102065.00;;;16.82;100.00
15272;BME280;7737;51.578;7.268;2022-10-03T13:11:31;102059.88;;;17.10;100.00
15272;BME280;7737;51.578;7.268;2022-10-03T13:14:18;102076.72;;;16.81;100.00
15272;BME280;7737;51.578;7.268;2022-10-03T13:16:57;102069.81;;;17.08;100.00
15272;BME280;7737;51.578;7.268;2022-10-03T13:19:27;102072.19;;;17.45;100.00
15272;BME280;7737;51.578;7.268;2022-10-03T13:22:01;102072.88;;;17.96;100.00
15272;BME280;7737;51.578;7.268;2022-10-03T13:24:37;102061.44;;;18.22;100.00
15272;BME280;7737;51.578;7.268;2022-10-03T13:27:15;102039.22;;;18.62;100.00
15272;BME280;7737;51.578;7.268;2022-10-03T13:29:49;102037.88;;;18.55;100.00
15272;BME280;7737;51.578;7.268;2022-10-03T13:32:29;102048.59;;;18.41;100.00
15272;BME280;7737;51.578;7.268;2022-10-03T13:35:18;102040.50;;;18.41;100.00
15272;BME280;7737;51.578;7.268;2022-10-03T13:38:22;102040.09;;;18.33;100.00
15272;BME280;7737;51.578;7.268;2022-10-03T13:41:05;102044.81;;;18.59;100.00
15272;BME280;7737;51.578;7.268;2022-10-03T13:43:36;102040.94;;;18.77;100.00
15272;BME280;7737;51.578;7.268;2022-10-03T13:46:11;102034.53;;;18.66;100.00
15272;BME280;7737;51.578;7.268;2022-10-03T13:48:41;102023.28;;;18.44;100.00
15272;BME280;7737;51.578;7.268;2022-10-03T13:51:19;102027.47;;;18.05;100.00
15272;BME280;7737;51.578;7.268;2022-10-03T13:53:57;102029.00;;;18.09;100.00
15272;BME280;7737;51.578;7.268;2022-10-03T13:56:52;102027.72;;;18.01;100.00
15272;BME280;7737;51.578;7.268;2022-10-03T14:02:32;102023.38;;;18.28;100.00
15272;BME280;7737;51.578;7.268;2022-10-03T14:05:17;102013.09;;;17.91;100.00
15272;BME280;7737;51.578;7.268;2022-10-03T14:07:51;102011.41;;;18.62;100.00
15272;BME280;7737;51.578;7.268;2022-10-03T14:10:34;102011.91;;;18.68;100.00
15272;BME280;7737;51.578;7.268;2022-10-03T14:13:12;101991.81;;;18.74;100.00
15272;BME280;7737;51.578;7.268;2022-10-03T14:15:48;101989.75;;;19.06;100.00
15272;BME280;7737;51.578;7.268;2022-10-03T14:18:24;101997.09;;;18.75;100.00
15272;BME280;7737;51.578;7.268;2022-10-03T14:21:24;102006.22;;;18.87;100.00
15272;BME280;7737;51.578;7.268;2022-10-03T14:24:01;101972.41;;;18.25;100.00
15272;BME280;7737;51.578;7.268;2022-10-03T14:26:37;101984.25;;;17.93;100.00
15272;BME280;7737;51.578;7.268;2022-10-03T14:29:15;101983.97;;;18.41;100.00
15272;BME280;7737;51.578;7.268;2022-10-03T14:31:48;101994.22;;;18.50;100.00
15272;BME280;7737;51.578;7.268;2022-10-03T14:34:31;101980.94;;;18.47;100.00
15272;BME280;7737;51.578;7.268;2022-10-03T14:37:05;101983.03;;;18.70;100.00
15272;BME280;7737;51.578;7.268;2022-10-03T14:39:40;101966.28;;;18.37;100.00
15272;BME280;7737;51.578;7.268;2022-10-03T14:42:42;101971.38;;;18.42;100.00
15272;BME280;7737;51.578;7.268;2022-10-03T14:45:15;101967.84;;;18.55;100.00
15272;BME280;7737;51.578;7.268;2022-10-03T14:47:56;101963.91;;;18.03;100.00
15272;BME280;7737;51.578;7.268;2022-10-03T14:50:27;101983.09;;;18.27;100.00
15272;BME280;7737;51.578;7.268;2022-10-03T14:52:58;101991.69;;;18.47;100.00
15272;BME280;7737;51.578;7.268;2022-10-03T14:55:30;101969.38;;;18.59;100.00
15272;BME280;7737;51.578;7.268;2022-10-03T14:58:00;101975.81;;;17.99;100.00
15272;BME280;7737;51.578;7.268;2022-10-03T15:00:37;101960.19;;;18.05;100.00
15272;BME280;7737;51.578;7.268;2022-10-03T15:03:28;101987.16;;;18.04;100.00
15272;BME280;7737;51.578;7.268;2022-10-03T15:06:00;101979.16;;;18.46;100.00
15272;BME280;7737;51.578;7.268;2022-10-03T15:08:32;101970.97;;;18.34;100.00
15272;BME280;7737;51.578;7.268;2022-10-03T15:11:03;101965.16;;;18.55;100.00
15272;BME280;7737;51.578;7.268;2022-10-03T15:13:34;101959.78;;;18.11;100.00
15272;BME280;7737;51.578;7.268;2022-10-03T15:16:06;101968.84;;;18.24;100.00
15272;BME280;7737;51.578;7.268;2022-10-03T15:18:33;101969.44;;;17.86;100.00
15272;BME280;7737;51.578;7.268;2022-10-03T15:21:02;101971.06;;;17.58;100.00
15272;BME280;7737;51.578;7.268;2022-10-03T15:23:33;101979.75;;;17.93;100.00
15272;BME280;7737;51.578;7.268;2022-10-03T15:26:08;101977.81;;;17.95;100.00
15272;BME280;7737;51.578;7.268;2022-10-03T15:28:39;101971.81;;;18.20;100.00
15272;BME280;7737;51.578;7.268;2022-10-03T15:31:14;101961.66;;;18.39;100.00
15272;BME280;7737;51.578;7.268;2022-10-03T15:33:44;101962.81;;;17.91;100.00
15272;BME280;7737;51.578;7.268;2022-10-03T15:36:15;101936.50;;;17.96;100.00
15272;BME280;7737;51.578;7.268;2022-10-03T15:38:48;101945.25;;;18.00;100.00
15272;BME280;7737;51.578;7.268;2022-10-03T15:41:20;101932.19;;;18.22;100.00
15272;BME280;7737;51.578;7.268;2022-10-03T15:43:54;101934.63;;;18.27;100.00
15272;BME280;7737;51.578;7.268;2022-10-03T15:46:31;101915.84;;;18.11;100.00
15272;BME280;7737;51.578;7.268;2022-10-03T15:49:00;101916.97;;;17.93;100.00
15272;BME280;7737;51.578;7.268;2022-10-03T15:51:28;101936.75;;;17.78;100.00
15272;BME280;7737;51.578;7.268;2022-10-03T15:53:57;101940.59;;;17.88;100.00
15272;BME280;7737;51.578;7.268;2022-10-03T15:56:31;101936.38;;;17.54;100.00
15272;BME280;7737;51.578;7.268;2022-10-03T15:59:01;101943.91;;;17.47;100.00
15272;BME280;7737;51.578;7.268;2022-10-03T16:01:35;101949.22;;;17.33;100.00
15272;BME280;7737;51.578;7.268;2022-10-03T16:04:05;101964.38;;;17.34;100.00
15272;BME280;7737;51.578;7.268;2022-10-03T16:06:38;101966.06;;;17.21;100.00
15272;BME280;7737;51.578;7.268;2022-10-03T16:09:16;101963.75;;;17.15;100.00
15272;BME280;7737;51.578;7.268;2022-10-03T16:11:55;101960.44;;;17.10;100.00
15272;BME280;7737;51.578;7.268;2022-10-03T16:14:27;101961.22;;;17.12;100.00
15272;BME280;7737;51.578;7.268;2022-10-03T16:16:59;101958.81;;;17.08;100.00
15272;BME280;7737;51.578;7.268;2022-10-03T16:19:30;101956.78;;;16.95;100.00
15272;BME280;7737;51.578;7.268;2022-10-03T16:22:11;101969.06;;;16.84;100.00
15272;BME280;7737;51.578;7.268;2022-10-03T16:24:56;101968.06;;;16.86;100.00
15272;BME280;7737;51.578;7.268;2022-10-03T16:27:25;101973.94;;;16.77;100.00
15272;BME280;7737;51.578;7.268;2022-10-03T16:30:09;101979.56;;;16.73;100.00